sensor_id;sensor_type;location;lat;lon;timestamp;P1;durP1;ratioP1;P2;durP2;ratioP2
42632;SDS011;28261;53.304;-6.284;2022-08-26T00:01:11;14.98;;;2.45;;
42632;SDS011;28261;53.304;-6.284;2022-08-26T00:03:17;7.55;;;1.50;;
42632;SDS011;28261;53.304;-6.284;2022-08-26T00:05:21;5.68;;;1.80;;
42632;SDS011;28261;53.304;-6.284;2022-08-26T00:07:25;7.25;;;1.63;;
42632;SDS011;28261;53.304;-6.284;2022-08-26T00:09:29;8.63;;;1.40;;
42632;SDS011;28261;53.304;-6.284;2022-08-26T00:11:39;9.30;;;1.75;;
42632;SDS011;28261;53.304;-6.284;2022-08-26T00:13:42;7.38;;;1.50;;
42632;SDS011;28261;53.304;-6.284;2022-08-26T00:15:50;11.77;;;1.90;;
42632;SDS011;28261;53.304;-6.284;2022-08-26T00:17:54;4.35;;;1.30;;
42632;SDS011;28261;53.304;-6.284;2022-08-26T00:19:59;7.68;;;1.33;;
42632;SDS011;28261;53.304;-6.284;2022-08-26T00:22:03;4.90;;;1.20;;
42632;SDS011;28261;53.304;-6.284;2022-08-26T00:24:07;7.00;;;1.40;;
42632;SDS011;28261;53.304;-6.284;2022-08-26T00:26:11;5.30;;;1.50;;
42632;SDS011;28261;53.304;-6.284;2022-08-26T00:28:14;5.22;;;1.20;;
42632;SDS011;28261;53.304;-6.284;2022-08-26T00:30:23;7.25;;;1.45;;
42632;SDS011;28261;53.304;-6.284;2022-08-26T00:32:29;7.07;;;1.50;;
42632;SDS011;28261;53.304;-6.284;2022-08-26T00:34:35;11.00;;;1.48;;
42632;SDS011;28261;53.304;-6.284;2022-08-26T00:36:40;7.70;;;1.33;;
42632;SDS011;28261;53.304;-6.284;2022-08-26T00:38:44;9.98;;;1.33;;
42632;SDS011;28261;53.304;-6.284;2022-08-26T00:40:49;8.80;;;1.58;;
42632;SDS011;28261;53.304;-6.284;2022-08-26T00:42:55;6.65;;;1.50;;
42632;SDS011;28261;53.304;-6.284;2022-08-26T00:44:58;5.90;;;1.88;;
42632;SDS011;28261;53.304;-6.284;2022-08-26T00:47:03;5.35;;;1.50;;
42632;SDS011;28261;53.304;-6.284;2022-08-26T00:49:10;7.03;;;1.60;;
42632;SDS011;28261;53.304;-6.284;2022-08-26T00:51:19;9.13;;;1.65;;
42632;SDS011;28261;53.304;-6.284;2022-08-26T00:53:33;8.43;;;1.37;;
42632;SDS011;28261;53.304;-6.284;2022-08-26T00:55:42;8.00;;;1.40;;
42632;SDS011;28261;53.304;-6.284;2022-08-26T00:57:46;5.78;;;1.35;;
42632;SDS011;28261;53.304;-6.284;2022-08-26T00:59:52;10.35;;;1.42;;
42632;SDS011;28261;53.304;-6.284;2022-08-26T01:01:58;4.40;;;1.38;;
42632;SDS011;28261;53.304;-6.284;2022-08-26T01:04:03;5.22;;;1.27;;
42632;SDS011;28261;53.304;-6.284;2022-08-26T01:06:07;9.77;;;2.08;;
42632;SDS011;28261;53.304;-6.284;2022-08-26T01:08:13;3.70;;;1.10;;
42632;SDS011;28261;53.304;-6.284;2022-08-26T01:10:19;8.50;;;1.13;;
42632;SDS011;28261;53.304;-6.284;2022-08-26T01:12:26;3.90;;;1.23;;
42632;SDS011;28261;53.304;-6.284;2022-08-26T01:14:34;6.80;;;1.10;;
42632;SDS011;28261;53.304;-6.284;2022-08-26T01:16:40;6.25;;;1.40;;
42632;SDS011;28261;53.304;-6.284;2022-08-26T01:18:44;4.30;;;1.35;;
42632;SDS011;28261;53.304;-6.284;2022-08-26T01:20:52;4.00;;;1.02;;
42632;SDS011;28261;53.304;-6.284;2022-08-26T01:23:02;3.80;;;1.20;;
42632;SDS011;28261;53.304;-6.284;2022-08-26T01:25:09;4.38;;;1.20;;
42632;SDS011;28261;53.304;-6.284;2022-08-26T01:27:14;3.20;;;1.10;;
42632;SDS011;28261;53.304;-6.284;2022-08-26T01:29:21;8.13;;;1.40;;
42632;SDS011;28261;53.304;-6.284;2022-08-26T01:31:27;5.75;;;1.40;;
42632;SDS011;28261;53.304;-6.284;2022-08-26T01:33:35;6.47;;;1.23;;
42632;SDS011;28261;53.304;-6.284;2022-08-26T01:35:43;4.03;;;1.35;;
42632;SDS011;28261;53.304;-6.284;2022-08-26T01:37:49;2.70;;;1.30;;
42632;SDS011;28261;53.304;-6.284;2022-08-26T01:39:57;8.55;;;1.50;;
42632;SDS011;28261;53.304;-6.284;2022-08-26T01:42:01;2.28;;;1.27;;
42632;SDS011;28261;53.304;-6.284;2022-08-26T01:44:15;3.47;;;1.48;;
42632;SDS011;28261;53.304;-6.284;2022-08-26T01:46:21;5.47;;;1.58;;
42632;SDS011;28261;53.304;-6.284;2022-08-26T01:48:30;4.20;;;1.30;;
42632;SDS011;28261;53.304;-6.284;2022-08-26T01:50:36;6.68;;;1.48;;
42632;SDS011;28261;53.304;-6.284;2022-08-26T01:52:41;3.95;;;1.20;;
42632;SDS011;28261;53.304;-6.284;2022-08-26T01:54:52;2.75;;;1.40;;
42632;SDS011;28261;53.304;-6.284;2022-08-26T01:56:58;5.45;;;1.30;;
42632;SDS011;28261;53.304;-6.284;2022-08-26T01:59:05;6.93;;;1.55;;
42632;SDS011;28261;53.304;-6.284;2022-08-26T02:01:14;4.95;;;1.85;;
42632;SDS011;28261;53.304;-6.284;2022-08-26T02:03:18;3.28;;;1.30;;
42632;SDS011;28261;53.304;-6.284;2022-08-26T02:05:23;4.40;;;1.55;;
42632;SDS011;28261;53.304;-6.284;2022-08-26T02:07:27;12.20;;;1.88;;
42632;SDS011;28261;53.304;-6.284;2022-08-26T02:09:35;13.40;;;1.88;;
42632;SDS011;28261;53.304;-6.284;2022-08-26T02:11:42;4.40;;;1.73;;
42632;SDS011;28261;53.304;-6.284;2022-08-26T02:13:47;7.18;;;1.67;;
42632;SDS011;28261;53.304;-6.284;2022-08-26T02:15:55;5.35;;;1.52;;
42632;SDS011;28261;53.304;-6.284;2022-08-26T02:17:59;9.75;;;1.60;;
42632;SDS011;28261;53.304;-6.284;2022-08-26T02:20:05;8.20;;;1.73;;
42632;SDS011;28261;53.304;-6.284;2022-08-26T02:22:17;5.15;;;2.03;;
42632;SDS011;28261;53.304;-6.284;2022-08-26T02:24:23;5.65;;;1.70;;
42632;SDS011;28261;53.304;-6.284;2022-08-26T02:26:28;6.53;;;1.60;;
42632;SDS011;28261;53.304;-6.284;2022-08-26T02:28:33;4.30;;;1.63;;
42632;SDS011;28261;53.304;-6.284;2022-08-26T02:30:42;7.00;;;1.73;;
42632;SDS011;28261;53.304;-6.284;2022-08-26T02:32:48;3.35;;;1.60;;
42632;SDS011;28261;53.304;-6.284;2022-08-26T02:34:52;8.98;;;2.10;;
42632;SDS011;28261;53.304;-6.284;2022-08-26T02:36:56;4.32;;;1.85;;
42632;SDS011;28261;53.304;-6.284;2022-08-26T02:39:01;5.20;;;2.00;;
42632;SDS011;28261;53.304;-6.284;2022-08-26T02:41:05;5.88;;;2.42;;
42632;SDS011;28261;53.304;-6.284;2022-08-26T02:43:10;7.53;;;2.13;;
42632;SDS011;28261;53.304;-6.284;2022-08-26T02:45:14;6.55;;;1.98;;
42632;SDS011;28261;53.304;-6.284;2022-08-26T02:47:25;9.45;;;2.20;;
42632;SDS011;28261;53.304;-6.284;2022-08-26T02:49:32;5.13;;;2.20;;
42632;SDS011;28261;53.304;-6.284;2022-08-26T02:51:36;5.72;;;2.05;;
42632;SDS011;28261;53.304;-6.284;2022-08-26T02:53:40;5.55;;;2.20;;
42632;SDS011;28261;53.304;-6.284;2022-08-26T02:55:43;8.35;;;1.80;;
42632;SDS011;28261;53.304;-6.284;2022-08-26T02:57:50;5.10;;;2.10;;
42632;SDS011;28261;53.304;-6.284;2022-08-26T02:59:53;4.50;;;2.05;;
42632;SDS011;28261;53.304;-6.284;2022-08-26T03:01:57;4.82;;;2.03;;
42632;SDS011;28261;53.304;-6.284;2022-08-26T03:04:03;6.50;;;2.10;;
42632;SDS011;28261;53.304;-6.284;2022-08-26T03:06:07;7.18;;;2.25;;
42632;SDS011;28261;53.304;-6.284;2022-08-26T03:08:11;7.47;;;2.15;;
42632;SDS011;28261;53.304;-6.284;2022-08-26T03:10:14;8.80;;;2.33;;
42632;SDS011;28261;53.304;-6.284;2022-08-26T03:12:18;5.40;;;1.98;;
42632;SDS011;28261;53.304;-6.284;2022-08-26T03:14:21;6.68;;;1.92;;
42632;SDS011;28261;53.304;-6.284;2022-08-26T03:16:25;5.60;;;2.17;;
42632;SDS011;28261;53.304;-6.284;2022-08-26T03:18:33;7.35;;;2.28;;
42632;SDS011;28261;53.304;-6.284;2022-08-26T03:20:38;10.27;;;2.20;;
42632;SDS011;28261;53.304;-6.284;2022-08-26T03:22:41;12.05;;;6.30;;
42632;SDS011;28261;53.304;-6.284;2022-08-26T03:24:45;4.55;;;2.15;;
42632;SDS011;28261;53.304;-6.284;2022-08-26T03:26:48;8.50;;;2.50;;
42632;SDS011;28261;53.304;-6.284;2022-08-26T03:28:54;9.05;;;2.47;;
42632;SDS011;28261;53.304;-6.284;2022-08-26T03:31:15;6.65;;;2.15;;
42632;SDS011;28261;53.304;-6.284;2022-08-26T03:33:19;5.40;;;2.17;;
42632;SDS011;28261;53.304;-6.284;2022-08-26T03:35:23;5.63;;;2.20;;
42632;SDS011;28261;53.304;-6.284;2022-08-26T03:37:29;4.22;;;2.10;;
42632;SDS011;28261;53.304;-6.284;2022-08-26T03:39:32;3.13;;;1.98;;
42632;SDS011;28261;53.304;-6.284;2022-08-26T03:41:36;7.13;;;2.28;;
42632;SDS011;28261;53.304;-6.284;2022-08-26T03:43:41;8.07;;;2.10;;
42632;SDS011;28261;53.304;-6.284;2022-08-26T03:45:45;4.68;;;1.77;;
42632;SDS011;28261;53.304;-6.284;2022-08-26T03:47:51;6.85;;;2.20;;
42632;SDS011;28261;53.304;-6.284;2022-08-26T03:49:58;3.47;;;1.80;;
42632;SDS011;28261;53.304;-6.284;2022-08-26T03:52:02;3.30;;;1.77;;
42632;SDS011;28261;53.304;-6.284;2022-08-26T03:54:07;3.75;;;1.92;;
42632;SDS011;28261;53.304;-6.284;2022-08-26T03:56:11;3.58;;;2.13;;
42632;SDS011;28261;53.304;-6.284;2022-08-26T03:58:15;5.30;;;2.10;;
42632;SDS011;28261;53.304;-6.284;2022-08-26T04:00:19;4.07;;;2.33;;
42632;SDS011;28261;53.304;-6.284;2022-08-26T04:02:23;9.32;;;2.20;;
42632;SDS011;28261;53.304;-6.284;2022-08-26T04:04:27;7.85;;;2.30;;
42632;SDS011;28261;53.304;-6.284;2022-08-26T04:06:32;5.82;;;1.88;;
42632;SDS011;28261;53.304;-6.284;2022-08-26T04:08:38;9.88;;;1.75;;
42632;SDS011;28261;53.304;-6.284;2022-08-26T04:10:44;3.17;;;1.58;;
42632;SDS011;28261;53.304;-6.284;2022-08-26T04:12:48;1.90;;;1.20;;
42632;SDS011;28261;53.304;-6.284;2022-08-26T04:14:52;2.25;;;0.88;;
42632;SDS011;28261;53.304;-6.284;2022-08-26T04:16:57;3.33;;;1.15;;
42632;SDS011;28261;53.304;-6.284;2022-08-26T04:19:01;4.90;;;1.52;;
42632;SDS011;28261;53.304;-6.284;2022-08-26T04:21:05;3.25;;;1.00;;
42632;SDS011;28261;53.304;-6.284;2022-08-26T04:23:09;3.22;;;0.80;;
42632;SDS011;28261;53.304;-6.284;2022-08-26T04:25:17;1.05;;;0.80;;
42632;SDS011;28261;53.304;-6.284;2022-08-26T04:27:23;4.05;;;0.68;;
42632;SDS011;28261;53.304;-6.284;2022-08-26T04:29:27;2.22;;;1.20;;
42632;SDS011;28261;53.304;-6.284;2022-08-26T04:31:32;0.98;;;0.60;;
42632;SDS011;28261;53.304;-6.284;2022-08-26T04:33:36;1.60;;;0.70;;
42632;SDS011;28261;53.304;-6.284;2022-08-26T04:35:42;0.40;;;0.40;;
42632;SDS011;28261;53.304;-6.284;2022-08-26T04:37:48;0.75;;;0.40;;
42632;SDS011;28261;53.304;-6.284;2022-08-26T04:39:52;0.68;;;0.40;;
42632;SDS011;28261;53.304;-6.284;2022-08-26T04:41:56;0.77;;;0.30;;
42632;SDS011;28261;53.304;-6.284;2022-08-26T04:44:04;0.75;;;0.38;;
42632;SDS011;28261;53.304;-6.284;2022-08-26T04:46:08;0.20;;;0.20;;
42632;SDS011;28261;53.304;-6.284;2022-08-26T04:48:14;1.02;;;0.38;;
42632;SDS011;28261;53.304;-6.284;2022-08-26T04:50:18;3.05;;;0.50;;
42632;SDS011;28261;53.304;-6.284;2022-08-26T04:52:25;1.50;;;0.65;;
42632;SDS011;28261;53.304;-6.284;2022-08-26T04:54:29;0.88;;;0.30;;
42632;SDS011;28261;53.304;-6.284;2022-08-26T04:56:34;1.08;;;0.50;;
42632;SDS011;28261;53.304;-6.284;2022-08-26T04:58:41;1.95;;;0.50;;
42632;SDS011;28261;53.304;-6.284;2022-08-26T05:00:46;1.35;;;0.70;;
42632;SDS011;28261;53.304;-6.284;2022-08-26T05:02:50;0.80;;;0.50;;
42632;SDS011;28261;53.304;-6.284;2022-08-26T05:04:55;1.73;;;0.88;;
42632;SDS011;28261;53.304;-6.284;2022-08-26T05:06:59;1.20;;;0.55;;
42632;SDS011;28261;53.304;-6.284;2022-08-26T05:09:04;1.58;;;0.50;;
42632;SDS011;28261;53.304;-6.284;2022-08-26T05:11:08;3.58;;;0.90;;
42632;SDS011;28261;53.304;-6.284;2022-08-26T05:13:12;1.48;;;0.70;;
42632;SDS011;28261;53.304;-6.284;2022-08-26T05:15:21;3.90;;;0.80;;
42632;SDS011;28261;53.304;-6.284;2022-08-26T05:17:26;2.63;;;0.63;;
42632;SDS011;28261;53.304;-6.284;2022-08-26T05:19:29;1.90;;;0.60;;
42632;SDS011;28261;53.304;-6.284;2022-08-26T05:21:33;1.60;;;0.70;;
42632;SDS011;28261;53.304;-6.284;2022-08-26T05:23:39;3.28;;;0.68;;
42632;SDS011;28261;53.304;-6.284;2022-08-26T05:25:43;2.53;;;1.05;;
42632;SDS011;28261;53.304;-6.284;2022-08-26T05:27:49;2.15;;;0.50;;
42632;SDS011;28261;53.304;-6.284;2022-08-26T05:29:55;2.17;;;0.43;;
42632;SDS011;28261;53.304;-6.284;2022-08-26T05:31:59;1.75;;;0.43;;
42632;SDS011;28261;53.304;-6.284;2022-08-26T05:34:04;0.70;;;0.40;;
42632;SDS011;28261;53.304;-6.284;2022-08-26T05:36:09;1.23;;;0.40;;
42632;SDS011;28261;53.304;-6.284;2022-08-26T05:38:16;1.75;;;0.40;;
42632;SDS011;28261;53.304;-6.284;2022-08-26T05:40:21;2.47;;;0.90;;
42632;SDS011;28261;53.304;-6.284;2022-08-26T05:42:26;2.58;;;0.52;;
42632;SDS011;28261;53.304;-6.284;2022-08-26T05:44:30;2.13;;;0.47;;
42632;SDS011;28261;53.304;-6.284;2022-08-26T05:46:53;3.28;;;0.60;;
42632;SDS011;28261;53.304;-6.284;2022-08-26T05:48:58;0.93;;;0.50;;
42632;SDS011;28261;53.304;-6.284;2022-08-26T05:51:04;3.97;;;0.60;;
42632;SDS011;28261;53.304;-6.284;2022-08-26T05:53:10;3.13;;;1.23;;
42632;SDS011;28261;53.304;-6.284;2022-08-26T05:55:18;2.38;;;1.15;;
42632;SDS011;28261;53.304;-6.284;2022-08-26T05:57:22;4.13;;;1.77;;
42632;SDS011;28261;53.304;-6.284;2022-08-26T05:59:25;2.38;;;1.50;;
42632;SDS011;28261;53.304;-6.284;2022-08-26T06:01:29;2.97;;;1.95;;
42632;SDS011;28261;53.304;-6.284;2022-08-26T06:03:37;3.53;;;2.30;;
42632;SDS011;28261;53.304;-6.284;2022-08-26T06:05:42;4.55;;;2.47;;
42632;SDS011;28261;53.304;-6.284;2022-08-26T06:07:47;3.72;;;2.10;;
42632;SDS011;28261;53.304;-6.284;2022-08-26T06:10:10;5.75;;;2.03;;
42632;SDS011;28261;53.304;-6.284;2022-08-26T06:12:33;4.38;;;2.05;;
42632;SDS011;28261;53.304;-6.284;2022-08-26T06:14:36;3.90;;;2.35;;
42632;SDS011;28261;53.304;-6.284;2022-08-26T06:16:40;5.40;;;2.08;;
42632;SDS011;28261;53.304;-6.284;2022-08-26T06:18:46;2.33;;;1.75;;
42632;SDS011;28261;53.304;-6.284;2022-08-26T06:20:51;2.20;;;1.50;;
42632;SDS011;28261;53.304;-6.284;2022-08-26T06:23:00;1.40;;;1.05;;
42632;SDS011;28261;53.304;-6.284;2022-08-26T06:25:23;1.85;;;1.45;;
42632;SDS011;28261;53.304;-6.284;2022-08-26T06:27:43;2.50;;;1.85;;
42632;SDS011;28261;53.304;-6.284;2022-08-26T06:29:47;2.95;;;1.60;;
42632;SDS011;28261;53.304;-6.284;2022-08-26T06:31:52;1.90;;;1.42;;
42632;SDS011;28261;53.304;-6.284;2022-08-26T06:33:58;2.40;;;1.70;;
42632;SDS011;28261;53.304;-6.284;2022-08-26T06:36:02;3.28;;;1.80;;
42632;SDS011;28261;53.304;-6.284;2022-08-26T06:38:08;2.75;;;2.50;;
42632;SDS011;28261;53.304;-6.284;2022-08-26T06:40:12;3.35;;;2.40;;
42632;SDS011;28261;53.304;-6.284;2022-08-26T06:42:16;4.63;;;2.63;;
42632;SDS011;28261;53.304;-6.284;2022-08-26T06:44:20;3.33;;;2.40;;
42632;SDS011;28261;53.304;-6.284;2022-08-26T06:46:23;8.18;;;2.40;;
42632;SDS011;28261;53.304;-6.284;2022-08-26T06:48:28;3.97;;;2.40;;
42632;SDS011;28261;53.304;-6.284;2022-08-26T06:50:31;6.57;;;2.72;;
42632;SDS011;28261;53.304;-6.284;2022-08-26T06:52:35;4.13;;;1.80;;
42632;SDS011;28261;53.304;-6.284;2022-08-26T06:54:41;1.73;;;1.38;;
42632;SDS011;28261;53.304;-6.284;2022-08-26T06:56:46;3.35;;;1.70;;
42632;SDS011;28261;53.304;-6.284;2022-08-26T06:58:50;3.20;;;1.92;;
42632;SDS011;28261;53.304;-6.284;2022-08-26T07:00:56;4.43;;;1.48;;
42632;SDS011;28261;53.304;-6.284;2022-08-26T07:03:09;3.40;;;1.85;;
42632;SDS011;28261;53.304;-6.284;2022-08-26T07:05:14;5.93;;;2.33;;
42632;SDS011;28261;53.304;-6.284;2022-08-26T07:07:18;3.80;;;1.20;;
42632;SDS011;28261;53.304;-6.284;2022-08-26T07:09:23;1.50;;;1.13;;
42632;SDS011;28261;53.304;-6.284;2022-08-26T07:11:30;2.30;;;1.23;;
42632;SDS011;28261;53.304;-6.284;2022-08-26T07:13:35;3.28;;;1.40;;
42632;SDS011;28261;53.304;-6.284;2022-08-26T07:15:40;2.03;;;1.30;;
42632;SDS011;28261;53.304;-6.284;2022-08-26T07:17:44;2.28;;;1.45;;
42632;SDS011;28261;53.304;-6.284;2022-08-26T07:19:48;4.93;;;1.80;;
42632;SDS011;28261;53.304;-6.284;2022-08-26T07:21:53;2.95;;;1.50;;
42632;SDS011;28261;53.304;-6.284;2022-08-26T07:23:56;4.30;;;1.17;;
42632;SDS011;28261;53.304;-6.284;2022-08-26T07:26:02;6.93;;;1.50;;
42632;SDS011;28261;53.304;-6.284;2022-08-26T07:28:08;5.65;;;1.25;;
42632;SDS011;28261;53.304;-6.284;2022-08-26T07:30:12;2.70;;;1.35;;
42632;SDS011;28261;53.304;-6.284;2022-08-26T07:32:19;2.45;;;1.33;;
42632;SDS011;28261;53.304;-6.284;2022-08-26T07:34:23;3.40;;;1.75;;
42632;SDS011;28261;53.304;-6.284;2022-08-26T07:36:28;1.70;;;1.30;;
42632;SDS011;28261;53.304;-6.284;2022-08-26T07:38:32;3.42;;;2.30;;
42632;SDS011;28261;53.304;-6.284;2022-08-26T07:40:36;4.28;;;2.30;;
42632;SDS011;28261;53.304;-6.284;2022-08-26T07:42:41;7.93;;;2.67;;
42632;SDS011;28261;53.304;-6.284;2022-08-26T07:44:47;3.35;;;2.58;;
42632;SDS011;28261;53.304;-6.284;2022-08-26T07:46:51;2.65;;;2.17;;
42632;SDS011;28261;53.304;-6.284;2022-08-26T07:48:55;3.88;;;2.40;;
42632;SDS011;28261;53.304;-6.284;2022-08-26T07:51:00;4.00;;;2.05;;
42632;SDS011;28261;53.304;-6.284;2022-08-26T07:53:04;5.35;;;2.80;;
42632;SDS011;28261;53.304;-6.284;2022-08-26T07:55:11;15.45;;;3.13;;
42632;SDS011;28261;53.304;-6.284;2022-08-26T07:57:14;4.32;;;3.00;;
42632;SDS011;28261;53.304;-6.284;2022-08-26T07:59:19;10.20;;;4.50;;
42632;SDS011;28261;53.304;-6.284;2022-08-26T08:01:25;8.13;;;4.13;;
42632;SDS011;28261;53.304;-6.284;2022-08-26T08:03:31;8.20;;;4.07;;
42632;SDS011;28261;53.304;-6.284;2022-08-26T08:05:35;7.68;;;4.43;;
42632;SDS011;28261;53.304;-6.284;2022-08-26T08:07:41;6.20;;;3.97;;
42632;SDS011;28261;53.304;-6.284;2022-08-26T08:09:47;6.38;;;3.67;;
42632;SDS011;28261;53.304;-6.284;2022-08-26T08:11:52;7.93;;;3.60;;
42632;SDS011;28261;53.304;-6.284;2022-08-26T08:13:55;9.23;;;3.85;;
42632;SDS011;28261;53.304;-6.284;2022-08-26T08:16:01;7.75;;;3.90;;
42632;SDS011;28261;53.304;-6.284;2022-08-26T08:18:07;4.32;;;2.95;;
42632;SDS011;28261;53.304;-6.284;2022-08-26T08:20:16;8.88;;;2.67;;
42632;SDS011;28261;53.304;-6.284;2022-08-26T08:22:20;2.08;;;1.50;;
42632;SDS011;28261;53.304;-6.284;2022-08-26T08:24:24;3.95;;;1.20;;
42632;SDS011;28261;53.304;-6.284;2022-08-26T08:26:28;2.85;;;1.17;;
42632;SDS011;28261;53.304;-6.284;2022-08-26T08:28:33;5.97;;;1.13;;
42632;SDS011;28261;53.304;-6.284;2022-08-26T08:30:37;2.88;;;1.15;;
42632;SDS011;28261;53.304;-6.284;2022-08-26T08:32:41;2.65;;;1.27;;
42632;SDS011;28261;53.304;-6.284;2022-08-26T08:34:47;9.10;;;1.10;;
42632;SDS011;28261;53.304;-6.284;2022-08-26T08:36:50;7.78;;;2.95;;
42632;SDS011;28261;53.304;-6.284;2022-08-26T08:38:55;4.18;;;1.27;;
42632;SDS011;28261;53.304;-6.284;2022-08-26T08:40:59;4.25;;;1.20;;
42632;SDS011;28261;53.304;-6.284;2022-08-26T08:43:06;2.28;;;0.85;;
42632;SDS011;28261;53.304;-6.284;2022-08-26T08:45:14;11.77;;;1.00;;
42632;SDS011;28261;53.304;-6.284;2022-08-26T08:47:24;8.85;;;1.77;;
42632;SDS011;28261;53.304;-6.284;2022-08-26T08:49:32;4.15;;;1.35;;
42632;SDS011;28261;53.304;-6.284;2022-08-26T08:51:40;4.43;;;1.00;;
42632;SDS011;28261;53.304;-6.284;2022-08-26T08:53:49;0.82;;;0.70;;
42632;SDS011;28261;53.304;-6.284;2022-08-26T08:56:01;2.15;;;0.90;;
42632;SDS011;28261;53.304;-6.284;2022-08-26T08:58:14;1.67;;;0.90;;
42632;SDS011;28261;53.304;-6.284;2022-08-26T09:00:21;1.02;;;0.75;;
42632;SDS011;28261;53.304;-6.284;2022-08-26T09:02:32;3.97;;;0.85;;
42632;SDS011;28261;53.304;-6.284;2022-08-26T09:04:53;4.60;;;0.80;;
42632;SDS011;28261;53.304;-6.284;2022-08-26T09:07:18;3.65;;;0.95;;
42632;SDS011;28261;53.304;-6.284;2022-08-26T09:09:35;1.42;;;1.00;;
42632;SDS011;28261;53.304;-6.284;2022-08-26T09:11:41;4.78;;;1.20;;
42632;SDS011;28261;53.304;-6.284;2022-08-26T09:13:47;4.88;;;1.02;;
42632;SDS011;28261;53.304;-6.284;2022-08-26T09:15:59;7.10;;;1.20;;
42632;SDS011;28261;53.304;-6.284;2022-08-26T09:18:14;3.20;;;1.10;;
42632;SDS011;28261;53.304;-6.284;2022-08-26T09:20:30;4.50;;;1.30;;
42632;SDS011;28261;53.304;-6.284;2022-08-26T09:22:47;3.45;;;1.25;;
42632;SDS011;28261;53.304;-6.284;2022-08-26T09:24:52;4.43;;;1.40;;
42632;SDS011;28261;53.304;-6.284;2022-08-26T09:26:55;4.35;;;1.52;;
42632;SDS011;28261;53.304;-6.284;2022-08-26T09:29:00;5.13;;;1.42;;
42632;SDS011;28261;53.304;-6.284;2022-08-26T09:31:09;3.30;;;1.20;;
42632;SDS011;28261;53.304;-6.284;2022-08-26T09:33:15;8.43;;;1.52;;
42632;SDS011;28261;53.304;-6.284;2022-08-26T09:35:22;6.47;;;1.35;;
42632;SDS011;28261;53.304;-6.284;2022-08-26T09:37:33;2.05;;;1.10;;
42632;SDS011;28261;53.304;-6.284;2022-08-26T09:39:41;3.05;;;0.93;;
42632;SDS011;28261;53.304;-6.284;2022-08-26T09:41:45;2.38;;;1.13;;
42632;SDS011;28261;53.304;-6.284;2022-08-26T09:44:09;1.55;;;1.08;;
42632;SDS011;28261;53.304;-6.284;2022-08-26T09:46:17;4.45;;;1.15;;
42632;SDS011;28261;53.304;-6.284;2022-08-26T09:48:28;5.57;;;1.20;;
42632;SDS011;28261;53.304;-6.284;2022-08-26T09:50:37;2.30;;;0.80;;
42632;SDS011;28261;53.304;-6.284;2022-08-26T09:53:02;2.83;;;1.00;;
42632;SDS011;28261;53.304;-6.284;2022-08-26T09:55:21;1.23;;;0.70;;
42632;SDS011;28261;53.304;-6.284;2022-08-26T09:57:27;2.93;;;0.80;;
42632;SDS011;28261;53.304;-6.284;2022-08-26T09:59:31;11.73;;;1.63;;
42632;SDS011;28261;53.304;-6.284;2022-08-26T10:01:36;1.55;;;0.70;;
42632;SDS011;28261;53.304;-6.284;2022-08-26T10:03:43;1.58;;;1.00;;
42632;SDS011;28261;53.304;-6.284;2022-08-26T10:05:53;3.13;;;1.00;;
42632;SDS011;28261;53.304;-6.284;2022-08-26T10:08:06;1.52;;;0.80;;
42632;SDS011;28261;53.304;-6.284;2022-08-26T10:10:21;2.67;;;0.90;;
42632;SDS011;28261;53.304;-6.284;2022-08-26T10:12:27;5.38;;;1.20;;
42632;SDS011;28261;53.304;-6.284;2022-08-26T10:14:37;2.60;;;1.05;;
42632;SDS011;28261;53.304;-6.284;2022-08-26T10:16:46;7.70;;;1.00;;
42632;SDS011;28261;53.304;-6.284;2022-08-26T10:18:55;4.53;;;1.17;;
42632;SDS011;28261;53.304;-6.284;2022-08-26T10:21:07;2.85;;;1.30;;
42632;SDS011;28261;53.304;-6.284;2022-08-26T10:23:18;2.28;;;1.20;;
42632;SDS011;28261;53.304;-6.284;2022-08-26T10:25:30;1.75;;;1.42;;
42632;SDS011;28261;53.304;-6.284;2022-08-26T10:27:38;3.20;;;1.60;;
42632;SDS011;28261;53.304;-6.284;2022-08-26T10:29:55;3.22;;;1.50;;
42632;SDS011;28261;53.304;-6.284;2022-08-26T10:32:09;1.90;;;1.50;;
42632;SDS011;28261;53.304;-6.284;2022-08-26T10:34:16;2.65;;;1.55;;
42632;SDS011;28261;53.304;-6.284;2022-08-26T10:36:23;3.42;;;1.30;;
42632;SDS011;28261;53.304;-6.284;2022-08-26T10:39:07;3.85;;;1.17;;
42632;SDS011;28261;53.304;-6.284;2022-08-26T10:41:19;4.38;;;1.38;;
42632;SDS011;28261;53.304;-6.284;2022-08-26T10:43:25;2.35;;;1.20;;
42632;SDS011;28261;53.304;-6.284;2022-08-26T10:45:32;5.10;;;1.45;;
42632;SDS011;28261;53.304;-6.284;2022-08-26T10:47:43;3.67;;;1.75;;
42632;SDS011;28261;53.304;-6.284;2022-08-26T10:49:51;7.47;;;1.85;;
42632;SDS011;28261;53.304;-6.284;2022-08-26T10:52:02;2.08;;;1.70;;
42632;SDS011;28261;53.304;-6.284;2022-08-26T10:54:18;3.33;;;1.40;;
42632;SDS011;28261;53.304;-6.284;2022-08-26T10:56:31;2.97;;;1.60;;
42632;SDS011;28261;53.304;-6.284;2022-08-26T10:58:49;3.20;;;2.05;;
42632;SDS011;28261;53.304;-6.284;2022-08-26T11:01:03;2.92;;;2.15;;
42632;SDS011;28261;53.304;-6.284;2022-08-26T11:03:30;3.60;;;1.70;;
42632;SDS011;28261;53.304;-6.284;2022-08-26T11:05:40;2.33;;;1.65;;
42632;SDS011;28261;53.304;-6.284;2022-08-26T11:07:45;1.42;;;1.33;;
42632;SDS011;28261;53.304;-6.284;2022-08-26T11:09:52;3.85;;;1.60;;
42632;SDS011;28261;53.304;-6.284;2022-08-26T11:11:58;4.45;;;2.05;;
42632;SDS011;28261;53.304;-6.284;2022-08-26T11:14:11;3.33;;;1.70;;
42632;SDS011;28261;53.304;-6.284;2022-08-26T11:16:47;4.25;;;2.00;;
42632;SDS011;28261;53.304;-6.284;2022-08-26T11:18:54;3.03;;;2.40;;
42632;SDS011;28261;53.304;-6.284;2022-08-26T11:20:57;7.20;;;2.55;;
42632;SDS011;28261;53.304;-6.284;2022-08-26T11:26:11;3.67;;;2.33;;
42632;SDS011;28261;53.304;-6.284;2022-08-26T11:28:39;4.60;;;2.40;;
42632;SDS011;28261;53.304;-6.284;2022-08-26T11:30:48;2.63;;;1.60;;
42632;SDS011;28261;53.304;-6.284;2022-08-26T11:32:58;2.78;;;1.30;;
42632;SDS011;28261;53.304;-6.284;2022-08-26T11:35:03;6.72;;;1.50;;
42632;SDS011;28261;53.304;-6.284;2022-08-26T11:37:11;3.97;;;1.67;;
42632;SDS011;28261;53.304;-6.284;2022-08-26T11:39:33;3.63;;;1.70;;
42632;SDS011;28261;53.304;-6.284;2022-08-26T11:41:56;3.42;;;1.90;;
42632;SDS011;28261;53.304;-6.284;2022-08-26T11:44:05;2.92;;;1.83;;
42632;SDS011;28261;53.304;-6.284;2022-08-26T11:46:10;5.88;;;2.00;;
42632;SDS011;28261;53.304;-6.284;2022-08-26T11:48:15;2.80;;;1.67;;
42632;SDS011;28261;53.304;-6.284;2022-08-26T11:50:22;5.60;;;1.40;;
42632;SDS011;28261;53.304;-6.284;2022-08-26T11:52:27;1.63;;;1.50;;
42632;SDS011;28261;53.304;-6.284;2022-08-26T11:54:33;1.67;;;1.38;;
42632;SDS011;28261;53.304;-6.284;2022-08-26T11:56:36;5.50;;;1.67;;
42632;SDS011;28261;53.304;-6.284;2022-08-26T11:58:42;2.75;;;1.70;;
42632;SDS011;28261;53.304;-6.284;2022-08-26T12:00:51;6.72;;;1.60;;
42632;SDS011;28261;53.304;-6.284;2022-08-26T12:02:59;2.97;;;1.40;;
42632;SDS011;28261;53.304;-6.284;2022-08-26T12:05:06;3.50;;;1.35;;
42632;SDS011;28261;53.304;-6.284;2022-08-26T12:07:11;1.92;;;1.08;;
42632;SDS011;28261;53.304;-6.284;2022-08-26T12:09:20;3.00;;;1.15;;
42632;SDS011;28261;53.304;-6.284;2022-08-26T12:11:26;4.20;;;1.40;;
42632;SDS011;28261;53.304;-6.284;2022-08-26T12:13:32;4.53;;;1.30;;
42632;SDS011;28261;53.304;-6.284;2022-08-26T12:15:38;2.50;;;1.13;;
42632;SDS011;28261;53.304;-6.284;2022-08-26T12:17:44;7.47;;;1.23;;
42632;SDS011;28261;53.304;-6.284;2022-08-26T12:19:55;3.55;;;1.40;;
42632;SDS011;28261;53.304;-6.284;2022-08-26T12:22:00;4.05;;;1.38;;
42632;SDS011;28261;53.304;-6.284;2022-08-26T12:24:06;2.10;;;1.35;;
42632;SDS011;28261;53.304;-6.284;2022-08-26T12:26:12;3.65;;;1.20;;
42632;SDS011;28261;53.304;-6.284;2022-08-26T12:28:24;6.95;;;1.40;;
42632;SDS011;28261;53.304;-6.284;2022-08-26T12:30:28;1.88;;;1.20;;
42632;SDS011;28261;53.304;-6.284;2022-08-26T12:32:33;3.55;;;1.30;;
42632;SDS011;28261;53.304;-6.284;2022-08-26T12:34:58;2.55;;;1.10;;
42632;SDS011;28261;53.304;-6.284;2022-08-26T12:37:12;3.25;;;1.23;;